Time;durP1;ratioP1;P1;durP2;ratioP2;P2;SDS_P1;SDS_P2;PMS_P1;PMS_P2;Temp;Humidity;BMP_temperature;BMP_pressure;BME280_temperature;BME280_humidity;BME280_pressure;Samples;Min_cycle;Max_cycle;Signal;HPM_P1;HPM_P2
2023/01/11 00:00:06;;;;;;;;;;;;;;;;;;7370143;19;858;-66
2023/01/11 00:02:39;;;;;;;;;;;;;;;;;;7370615;19;1319;-67
2023/01/11 00:05:08;;;;;;;;;;;;;;;;;;7375386;19;1220;-66
2023/01/11 00:07:36;;;;;;;;;;;;;;;;;;7371231;19;1952;-66
2023/01/11 00:10:05;;;;;;;;;;;;;;;;;;7371481;19;1744;-66
2023/01/11 00:12:33;;;;;;;;;;;;;;;;;;7371132;19;1845;-67
2023/01/11 00:15:01;;;;;;;;;;;;;;;;;;7369404;19;1850;-66
2023/01/11 00:17:29;;;;;;;;;;;;;;;;;;7371339;19;800;-66
2023/01/11 00:19:57;;;;;;;;;;;;;;;;;;7370102;19;761;-66
2023/01/11 00:22:26;;;;;;;;;;;;;;;;;;7369515;19;1239;-66
2023/01/11 00:24:54;;;;;;;;;;;;;;;;;;7372432;19;1836;-66
2023/01/11 00:27:22;;;;;;;;;;;;;;;;;;7374364;19;1862;-66
2023/01/11 00:29:50;;;;;;;;;;;;;;;;;;7368878;19;803;-67
2023/01/11 00:32:18;;;;;;;;;;;;;;;;;;7369374;19;1392;-67
2023/01/11 00:34:47;;;;;;;;;;;;;;;;;;7366864;19;1853;-65
2023/01/11 00:37:15;;;;;;;;;;;;;;;;;;7371107;19;850;-66
2023/01/11 00:39:43;;;;;;;;;;;;;;;;;;7369549;19;858;-66
2023/01/11 00:50:13;;;;;;;;;;;;;;;;;;7369862;19;859;-66
2023/01/11 00:52:41;;;;;;;;;;;;;;;;;;7373395;19;1552;-66
2023/01/11 00:55:09;;;;;;;;;;;;;;;;;;7367589;19;1842;-67
2023/01/11 00:57:37;;;;;;;;;;;;;;;;;;7369915;19;1757;-67
2023/01/11 01:00:06;;;;;;;;;;;;;;;;;;7370555;19;960;-67
2023/01/11 01:02:34;;;;;;;;;;;;;;;;;;7367637;19;1333;-66
2023/01/11 01:05:02;;;;;;;;;;;;;;;;;;7369758;19;796;-66
2023/01/11 01:07:30;;;;;;;;;;;;;;;;;;7369261;19;791;-67
2023/01/11 01:09:58;;;;;;;;;;;;;;;;;;7369685;19;922;-66
2023/01/11 01:15:07;;;;;;;;;;;;;;;;;;7366684;19;1850;-67
2023/01/11 01:17:35;;;;;;;;;;;;;;;;;;7368916;19;811;-66
2023/01/11 01:20:03;;;;;;;;;;;;;;;;;;7367931;19;922;-66
2023/01/11 01:22:31;;;;;;;;;;;;;;;;;;7368147;19;1224;-67
2023/01/11 01:24:59;;;;;;;;;;;;;;;;;;7369291;19;828;-67
2023/01/11 01:27:28;;;;;;;;;;;;;;;;;;7369224;19;1303;-67
2023/01/11 01:29:56;;;;;;;;;;;;;;;;;;7367326;19;1871;-67
2023/01/11 01:32:24;;;;;;;;;;;;;;;;;;7371067;19;1985;-67
2023/01/11 01:34:52;;;;;;;;;;;;;;;;;;7371631;19;1857;-67
2023/01/11 01:37:20;;;;;;;;;;;;;;;;;;7368669;19;813;-67
2023/01/11 01:39:48;;;;;;;;;;;;;;;;;;7368358;19;808;-66
2023/01/11 01:42:17;;;;;;;;;;;;;;;;;;7367732;19;1362;-66
2023/01/11 01:44:45;;;;;;;;;;;;;;;;;;7368933;19;831;-66
2023/01/11 01:47:13;;;;;;;;;;;;;;;;;;7368959;19;1887;-66
2023/01/11 01:49:41;;;;;;;;;;;;;;;;;;7367715;19;804;-65
2023/01/11 01:52:09;;;;;;;;;;;;;;;;;;7367219;19;1738;-65
2023/01/11 01:54:38;;;;;;;;;;;;;;;;;;7366384;19;1851;-65
2023/01/11 01:57:06;;;;;;;;;;;;;;;;;;7368673;19;817;-65
2023/01/11 01:59:34;;;;;;;;;;;;;;;;;;7367484;19;862;-65
2023/01/11 02:02:02;;;;;;;;;;;;;;;;;;7369788;19;2409;-66
2023/01/11 02:04:30;;;;;;;;;;;;;;;;;;7367968;19;836;-66
2023/01/11 02:06:59;;;;;;;;;;;;;;;;;;7367680;19;816;-65
2023/01/11 02:09:27;;;;;;;;;;;;;;;;;;7362836;19;788;-65
2023/01/11 02:11:55;;;;;;;;;;;;;;;;;;7369901;19;1895;-66
2023/01/11 02:14:23;;;;;;;;;;;;;;;;;;7366327;19;1849;-66
2023/01/11 02:16:51;;;;;;;;;;;;;;;;;;7368893;19;1871;-66
2023/01/11 02:19:20;;;;;;;;;;;;;;;;;;7365811;19;855;-66
2023/01/11 02:21:48;;;;;;;;;;;;;;;;;;7367861;19;1832;-66
2023/01/11 02:24:16;;;;;;;;;;;;;;;;;;7366167;19;875;-66
2023/01/11 02:26:44;;;;;;;;;;;;;;;;;;7367753;19;824;-65
2023/01/11 02:29:20;;;;;;;;;;;;;;;;;;7398613;19;1348;-66
2023/01/11 02:31:48;;;;;;;;;;;;;;;;;;7400281;19;1354;-67
2023/01/11 02:34:16;;;;;;;;;;;;;;;;;;7404257;19;1819;-65
2023/01/11 02:36:47;;;;;;;;;;;;;;;;;;7400197;19;814;-66
2023/01/11 02:39:15;;;;;;;;;;;;;;;;;;7399697;19;772;-67
2023/01/11 02:47:04;;;;;;;;;;;;;;;;;;7399315;19;1810;-66
2023/01/11 02:49:32;;;;;;;;;;;;;;;;;;7400112;19;1875;-68
2023/01/11 02:52:00;;;;;;;;;;;;;;;;;;7401197;19;1395;-67
2023/01/11 02:54:28;;;;;;;;;;;;;;;;;;7398954;19;795;-67
2023/01/11 02:56:57;;;;;;;;;;;;;;;;;;7400543;19;2126;-67
2023/01/11 02:59:25;;;;;;;;;;;;;;;;;;7402077;19;1886;-67
2023/01/11 03:01:54;;;;;;;;;;;;;;;;;;7399535;19;1873;-66
2023/01/11 03:04:22;;;;;;;;;;;;;;;;;;7400137;19;813;-67
2023/01/11 03:06:50;;;;;;;;;;;;;;;;;;7398421;19;1839;-67
2023/01/11 03:09:18;;;;;;;;;;;;;;;;;;7397735;19;1845;-67
2023/01/11 03:14:27;;;;;;;;;;;;;;;;;;7398922;19;775;-67
2023/01/11 03:16:55;;;;;;;;;;;;;;;;;;7400521;19;1850;-67
2023/01/11 03:19:23;;;;;;;;;;;;;;;;;;7396313;19;807;-68
2023/01/11 03:21:52;;;;;;;;;;;;;;;;;;7400099;19;1835;-66
2023/01/11 03:24:20;;;;;;;;;;;;;;;;;;7397867;19;866;-67
2023/01/11 03:26:48;;;;;;;;;;;;;;;;;;7398180;19;866;-68
2023/01/11 03:29:16;;;;;;;;;;;;;;;;;;7394660;19;1869;-66
2023/01/11 03:31:45;;;;;;;;;;;;;;;;;;7396912;19;1342;-67
2023/01/11 03:34:13;;;;;;;;;;;;;;;;;;7398471;19;949;-67
2023/01/11 03:36:41;;;;;;;;;;;;;;;;;;7398530;19;1848;-67
2023/01/11 03:39:10;;;;;;;;;;;;;;;;;;7389963;19;1868;-67
2023/01/11 03:41:38;;;;;;;;;;;;;;;;;;7370283;19;1293;-67
2023/01/11 03:44:06;;;;;;;;;;;;;;;;;;7370189;19;810;-66
2023/01/11 03:46:34;;;;;;;;;;;;;;;;;;7369992;19;947;-67
2023/01/11 03:49:02;;;;;;;;;;;;;;;;;;7367596;19;1850;-68
2023/01/11 03:51:30;;;;;;;;;;;;;;;;;;7369949;19;1305;-67
2023/01/11 03:53:59;;;;;;;;;;;;;;;;;;7371268;19;1881;-67
2023/01/11 03:56:27;;;;;;;;;;;;;;;;;;7372067;19;1900;-67
2023/01/11 03:58:55;;;;;;;;;;;;;;;;;;7369182;19;861;-66
2023/01/11 04:01:23;;;;;;;;;;;;;;;;;;7370011;19;837;-67
2023/01/11 04:03:51;;;;;;;;;;;;;;;;;;7367426;19;1333;-67
2023/01/11 04:06:19;;;;;;;;;;;;;;;;;;7370041;19;831;-67
2023/01/11 04:08:48;;;;;;;;;;;;;;;;;;7368383;19;1814;-67
2023/01/11 04:11:16;;;;;;;;;;;;;;;;;;7374885;19;1837;-67
2023/01/11 04:13:44;;;;;;;;;;;;;;;;;;7368363;19;1235;-67
2023/01/11 04:16:12;;;;;;;;;;;;;;;;;;7370473;19;844;-68
2023/01/11 04:18:41;;;;;;;;;;;;;;;;;;7370359;19;806;-68
2023/01/11 04:21:09;;;;;;;;;;;;;;;;;;7371168;19;816;-67
2023/01/11 04:23:37;;;;;;;;;;;;;;;;;;7368620;19;1269;-68
2023/01/11 04:26:05;;;;;;;;;;;;;;;;;;7371934;19;1890;-68
2023/01/11 04:28:34;;;;;;;;;;;;;;;;;;7371322;19;1844;-66
2023/01/11 04:31:02;;;;;;;;;;;;;;;;;;7375190;19;839;-68
2023/01/11 04:33:30;;;;;;;;;;;;;;;;;;7371071;19;1286;-68
2023/01/11 04:35:58;;;;;;;;;;;;;;;;;;7374019;19;837;-67
2023/01/11 04:38:26;;;;;;;;;;;;;;;;;;7373630;19;819;-68
2023/01/11 04:42:17;;;;;;;;;;;;;;;;;;7375192;19;864;-68
2023/01/11 04:43:40;;;;;;;;;;;;;;;;;;7370932;19;1955;-67
2023/01/11 04:46:09;;;;;;;;;;;;;;;;;;7371551;19;759;-68
2023/01/11 04:48:38;;;;;;;;;;;;;;;;;;7370665;19;1855;-68
2023/01/11 04:51:06;;;;;;;;;;;;;;;;;;7373575;19;1930;-67
2023/01/11 04:53:34;;;;;;;;;;;;;;;;;;7369281;19;1391;-69
2023/01/11 04:56:02;;;;;;;;;;;;;;;;;;7372652;19;806;-65
2023/01/11 04:58:30;;;;;;;;;;;;;;;;;;7369833;19;1847;-66
2023/01/11 05:00:59;;;;;;;;;;;;;;;;;;7367840;19;866;-66
2023/01/11 05:03:27;;;;;;;;;;;;;;;;;;7365418;19;1270;-66
2023/01/11 05:05:55;;;;;;;;;;;;;;;;;;7367975;19;818;-67
2023/01/11 05:08:23;;;;;;;;;;;;;;;;;;7365982;19;1882;-67
2023/01/11 05:10:51;;;;;;;;;;;;;;;;;;7368140;19;825;-66
2023/01/11 05:13:19;;;;;;;;;;;;;;;;;;7365706;19;1341;-67
2023/01/11 05:15:48;;;;;;;;;;;;;;;;;;7369650;19;1746;-67
2023/01/11 05:18:16;;;;;;;;;;;;;;;;;;7366904;19;943;-66
2023/01/11 05:20:44;;;;;;;;;;;;;;;;;;7368212;19;799;-67
2023/01/11 05:23:12;;;;;;;;;;;;;;;;;;7365823;19;1305;-67
2023/01/11 05:25:40;;;;;;;;;;;;;;;;;;7367576;19;782;-67
2023/01/11 05:28:09;;;;;;;;;;;;;;;;;;7365940;19;1854;-67
2023/01/11 05:30:37;;;;;;;;;;;;;;;;;;7368012;19;794;-67
2023/01/11 05:33:05;;;;;;;;;;;;;;;;;;7369068;19;1812;-68
2023/01/11 05:35:33;;;;;;;;;;;;;;;;;;7367204;19;809;-67
2023/01/11 05:38:01;;;;;;;;;;;;;;;;;;7366340;19;873;-68
2023/01/11 05:40:29;;;;;;;;;;;;;;;;;;7370450;19;1874;-67
2023/01/11 05:42:58;;;;;;;;;;;;;;;;;;7364290;19;1345;-68
2023/01/11 05:45:31;;;;;;;;;;;;;;;;;;7371669;19;2094;-67
2023/01/11 05:47:59;;;;;;;;;;;;;;;;;;7366596;19;1873;-68
2023/01/11 05:50:27;;;;;;;;;;;;;;;;;;7368718;19;1815;-69
2023/01/11 05:52:55;;;;;;;;;;;;;;;;;;7364936;19;1275;-68
2023/01/11 05:55:23;;;;;;;;;;;;;;;;;;7366068;19;854;-68
2023/01/11 05:57:52;;;;;;;;;;;;;;;;;;7366538;19;825;-67
2023/01/11 06:00:20;;;;;;;;;;;;;;;;;;7366977;19;845;-67
2023/01/11 06:02:48;;;;;;;;;;;;;;;;;;7363723;19;1369;-68
2023/01/11 06:05:16;;;;;;;;;;;;;;;;;;7368988;19;1977;-68
2023/01/11 06:07:44;;;;;;;;;;;;;;;;;;7366146;19;810;-68
2023/01/11 06:10:13;;;;;;;;;;;;;;;;;;7362870;19;1857;-68
2023/01/11 06:12:41;;;;;;;;;;;;;;;;;;7364710;19;1333;-67
2023/01/11 06:15:09;;;;;;;;;;;;;;;;;;7364731;19;814;-68
2023/01/11 06:17:37;;;;;;;;;;;;;;;;;;7365195;19;812;-68
2023/01/11 06:20:05;;;;;;;;;;;;;;;;;;7368360;19;1752;-68
2023/01/11 06:22:34;;;;;;;;;;;;;;;;;;7368528;19;1899;-68
2023/01/11 06:25:02;;;;;;;;;;;;;;;;;;7365831;19;877;-67
2023/01/11 06:27:30;;;;;;;;;;;;;;;;;;7365666;19;778;-68
2023/01/11 06:29:58;;;;;;;;;;;;;;;;;;7362628;19;1850;-68
2023/01/11 06:32:26;;;;;;;;;;;;;;;;;;7363851;19;1296;-68
2023/01/11 06:34:54;;;;;;;;;;;;;;;;;;7365433;19;859;-68
2023/01/11 06:37:23;;;;;;;;;;;;;;;;;;7365704;19;2240;-67
2023/01/11 06:39:51;;;;;;;;;;;;;;;;;;7365098;19;809;-67
2023/01/11 06:42:19;;;;;;;;;;;;;;;;;;7364078;19;1274;-68
2023/01/11 06:44:47;;;;;;;;;;;;;;;;;;7364886;19;860;-67
2023/01/11 06:47:15;;;;;;;;;;;;;;;;;;7365715;19;762;-67
2023/01/11 06:49:43;;;;;;;;;;;;;;;;;;7361865;19;1857;-66
2023/01/11 06:52:11;;;;;;;;;;;;;;;;;;7365018;19;1881;-66
2023/01/11 06:54:40;;;;;;;;;;;;;;;;;;7366802;19;1860;-67
2023/01/11 06:57:08;;;;;;;;;;;;;;;;;;7364462;19;825;-67
2023/01/11 06:59:37;;;;;;;;;;;;;;;;;;7363059;19;833;-67
2023/01/11 07:02:05;;;;;;;;;;;;;;;;;;7363746;19;1318;-67
2023/01/11 07:04:33;;;;;;;;;;;;;;;;;;7365272;19;795;-67
2023/01/11 07:07:01;;;;;;;;;;;;;;;;;;7365339;19;822;-67
2023/01/11 07:09:30;;;;;;;;;;;;;;;;;;7367256;19;1845;-67
2023/01/11 07:11:58;;;;;;;;;;;;;;;;;;7369294;19;1497;-68
2023/01/11 07:14:26;;;;;;;;;;;;;;;;;;7369781;19;2156;-68
2023/01/11 07:16:54;;;;;;;;;;;;;;;;;;7372384;19;797;-68
2023/01/11 07:19:22;;;;;;;;;;;;;;;;;;7371536;19;826;-67
2023/01/11 07:21:51;;;;;;;;;;;;;;;;;;7370653;19;2380;-67
2023/01/11 07:24:19;;;;;;;;;;;;;;;;;;7372337;19;890;-68
2023/01/11 07:26:47;;;;;;;;;;;;;;;;;;7372075;19;822;-67
2023/01/11 07:29:15;;;;;;;;;;;;;;;;;;7370437;19;1867;-68
2023/01/11 07:31:43;;;;;;;;;;;;;;;;;;7370917;19;1337;-68
2023/01/11 07:34:12;;;;;;;;;;;;;;;;;;7372117;19;874;-68
2023/01/11 07:36:40;;;;;;;;;;;;;;;;;;7374866;19;1832;-68
2023/01/11 07:39:08;;;;;;;;;;;;;;;;;;7373349;19;1885;-68
2023/01/11 07:44:17;;;;;;;;;;;;;;;;;;7371585;19;776;-68
2023/01/11 07:46:45;;;;;;;;;;;;;;;;;;7371689;19;797;-69
2023/01/11 07:49:13;;;;;;;;;;;;;;;;;;7368160;19;1861;-68
2023/01/11 07:51:41;;;;;;;;;;;;;;;;;;7371312;19;1278;-67
2023/01/11 07:54:10;;;;;;;;;;;;;;;;;;7370267;19;810;-67
2023/01/11 07:56:38;;;;;;;;;;;;;;;;;;7370484;19;837;-67
2023/01/11 07:59:06;;;;;;;;;;;;;;;;;;7370725;19;1226;-68
2023/01/11 08:01:34;;;;;;;;;;;;;;;;;;7371196;19;1345;-68
2023/01/11 08:04:03;;;;;;;;;;;;;;;;;;7371718;19;2161;-68
2023/01/11 08:06:31;;;;;;;;;;;;;;;;;;7375456;19;1793;-67
2023/01/11 08:09:01;;;;;;;;;;;;;;;;;;7371978;19;1907;-68
2023/01/11 08:16:51;;;;;;;;;;;;;;;;;;7373212;19;1799;-67
2023/01/11 08:19:19;;;;;;;;;;;;;;;;;;7369330;19;774;-67
2023/01/11 08:21:47;;;;;;;;;;;;;;;;;;7367994;19;1231;-67
2023/01/11 08:24:15;;;;;;;;;;;;;;;;;;7368457;19;1740;-68
2023/01/11 08:26:44;;;;;;;;;;;;;;;;;;7369419;19;825;-68
2023/01/11 08:29:12;;;;;;;;;;;;;;;;;;7368647;19;1854;-68
2023/01/11 08:31:40;;;;;;;;;;;;;;;;;;7368831;19;2001;-67
2023/01/11 08:34:08;;;;;;;;;;;;;;;;;;7368082;19;809;-66
2023/01/11 08:36:36;;;;;;;;;;;;;;;;;;7369708;19;847;-66
2023/01/11 08:39:05;;;;;;;;;;;;;;;;;;7367865;19;826;-65
2023/01/11 08:41:33;;;;;;;;;;;;;;;;;;7369310;19;1343;-66
2023/01/11 08:44:02;;;;;;;;;;;;;;;;;;7372915;19;1631;-66
2023/01/11 08:46:32;;;;;;;;;;;;;;;;;;7370158;19;765;-67
2023/01/11 08:49:00;;;;;;;;;;;;;;;;;;7369342;19;1826;-68
2023/01/11 08:51:29;;;;;;;;;;;;;;;;;;7369294;19;831;-67
2023/01/11 08:53:57;;;;;;;;;;;;;;;;;;7369504;19;826;-67
2023/01/11 08:56:25;;;;;;;;;;;;;;;;;;7369445;19;823;-65
2023/01/11 08:58:53;;;;;;;;;;;;;;;;;;7368655;19;775;-65
2023/01/11 09:01:21;;;;;;;;;;;;;;;;;;7369483;19;877;-66
2023/01/11 09:03:50;;;;;;;;;;;;;;;;;;7368766;19;1890;-66
2023/01/11 09:06:18;;;;;;;;;;;;;;;;;;7368728;19;870;-67
2023/01/11 09:08:46;;;;;;;;;;;;;;;;;;7369791;19;1845;-66
2023/01/11 09:13:55;;;;;;;;;;;;;;;;;;7366997;19;1438;-66
2023/01/11 09:16:23;;;;;;;;;;;;;;;;;;7370068;19;1285;-66
2023/01/11 09:18:51;;;;;;;;;;;;;;;;;;7369304;19;820;-65
2023/01/11 09:21:19;;;;;;;;;;;;;;;;;;7369103;19;818;-66
2023/01/11 09:23:47;;;;;;;;;;;;;;;;;;7370103;19;1634;-65
2023/01/11 09:26:16;;;;;;;;;;;;;;;;;;7371051;19;833;-66
2023/01/11 09:28:44;;;;;;;;;;;;;;;;;;7369108;19;843;-66
2023/01/11 09:31:12;;;;;;;;;;;;;;;;;;7371305;19;1839;-66
2023/01/11 09:33:40;;;;;;;;;;;;;;;;;;7374721;19;1262;-67
2023/01/11 09:36:08;;;;;;;;;;;;;;;;;;7379294;19;805;-67
2023/01/11 09:38:38;;;;;;;;;;;;;;;;;;7376445;19;1840;-66
2023/01/11 09:41:08;;;;;;;;;;;;;;;;;;7377758;19;863;-66
2023/01/11 09:43:37;;;;;;;;;;;;;;;;;;7381955;19;1336;-67
2023/01/11 09:46:07;;;;;;;;;;;;;;;;;;7395295;19;1736;-66
2023/01/11 09:48:36;;;;;;;;;;;;;;;;;;7392487;19;1766;-66
2023/01/11 09:51:04;;;;;;;;;;;;;;;;;;7387483;19;1861;-67
2023/01/11 09:53:35;;;;;;;;;;;;;;;;;;7386787;19;1290;-66
2023/01/11 09:56:04;;;;;;;;;;;;;;;;;;7375163;19;1086;-66
2023/01/11 09:58:32;;;;;;;;;;;;;;;;;;7370290;19;847;-67
2023/01/11 10:01:02;;;;;;;;;;;;;;;;;;7370048;19;735;-66
2023/01/11 10:03:30;;;;;;;;;;;;;;;;;;7368991;19;1670;-67
2023/01/11 10:05:58;;;;;;;;;;;;;;;;;;7371166;19;866;-67
2023/01/11 10:08:30;;;;;;;;;;;;;;;;;;7368180;19;740;-67
2023/01/11 10:11:00;;;;;;;;;;;;;;;;;;7365821;19;1846;-67
2023/01/11 10:13:29;;;;;;;;;;;;;;;;;;7363083;19;1323;-68
2023/01/11 10:15:59;;;;;;;;;;;;;;;;;;7367479;19;920;-68
2023/01/11 10:18:27;;;;;;;;;;;;;;;;;;7366939;19;802;-68
2023/01/11 10:20:55;;;;;;;;;;;;;;;;;;7368464;19;1621;-67
2023/01/11 10:23:27;;;;;;;;;;;;;;;;;;7362833;19;1347;-66
2023/01/11 10:25:58;;;;;;;;;;;;;;;;;;7370373;19;1329;-67
2023/01/11 10:28:30;;;;;;;;;;;;;;;;;;7364239;19;851;-67
2023/01/11 10:31:10;;;;;;;;;;;;;;;;;;7366110;19;1857;-67
2023/01/11 10:33:49;;;;;;;;;;;;;;;;;;7364857;19;1345;-67
2023/01/11 10:36:31;;;;;;;;;;;;;;;;;;7368853;19;2014;-68
2023/01/11 10:39:10;;;;;;;;;;;;;;;;;;7366958;19;790;-67
2023/01/11 10:41:41;;;;;;;;;;;;;;;;;;7366693;19;1290;-67
2023/01/11 10:44:09;;;;;;;;;;;;;;;;;;7365801;19;774;-67
2023/01/11 10:46:38;;;;;;;;;;;;;;;;;;7367996;19;873;-68
2023/01/11 10:49:08;;;;;;;;;;;;;;;;;;7365599;19;1590;-66
2023/01/11 10:51:36;;;;;;;;;;;;;;;;;;7369971;19;1857;-67
2023/01/11 10:54:05;;;;;;;;;;;;;;;;;;7372572;19;857;-67
2023/01/11 10:56:33;;;;;;;;;;;;;;;;;;7372366;19;808;-67
2023/01/11 10:59:03;;;;;;;;;;;;;;;;;;7372708;19;803;-67
2023/01/11 11:01:33;;;;;;;;;;;;;;;;;;7372251;19;1306;-67
2023/01/11 11:04:01;;;;;;;;;;;;;;;;;;7374039;19;1932;-66
2023/01/11 11:06:31;;;;;;;;;;;;;;;;;;7376607;19;1657;-67
2023/01/11 11:08:59;;;;;;;;;;;;;;;;;;7375313;19;949;-66
2023/01/11 11:11:27;;;;;;;;;;;;;;;;;;7376276;19;1865;-66
2023/01/11 11:14:04;;;;;;;;;;;;;;;;;;7373545;19;1450;-66
2023/01/11 11:16:35;;;;;;;;;;;;;;;;;;7374767;19;789;-66
2023/01/11 11:19:03;;;;;;;;;;;;;;;;;;7369093;19;818;-66
2023/01/11 11:21:32;;;;;;;;;;;;;;;;;;7371144;19;806;-67
2023/01/11 11:24:00;;;;;;;;;;;;;;;;;;7369320;19;859;-67
2023/01/11 11:26:28;;;;;;;;;;;;;;;;;;7370624;19;812;-66
2023/01/11 11:28:57;;;;;;;;;;;;;;;;;;7371814;19;923;-67
2023/01/11 11:31:25;;;;;;;;;;;;;;;;;;7370910;19;1846;-66
2023/01/11 11:33:53;;;;;;;;;;;;;;;;;;7369145;19;1330;-67
2023/01/11 11:36:21;;;;;;;;;;;;;;;;;;7371406;19;1299;-67
2023/01/11 11:38:49;;;;;;;;;;;;;;;;;;7370941;19;841;-65
2023/01/11 11:41:17;;;;;;;;;;;;;;;;;;7369717;19;863;-67
2023/01/11 11:43:46;;;;;;;;;;;;;;;;;;7368590;19;1290;-67
2023/01/11 11:46:14;;;;;;;;;;;;;;;;;;7371563;19;1824;-66
2023/01/11 11:48:42;;;;;;;;;;;;;;;;;;7372998;19;1800;-65
2023/01/11 11:51:10;;;;;;;;;;;;;;;;;;7368892;19;1850;-65
2023/01/11 11:53:41;;;;;;;;;;;;;;;;;;7368379;19;1322;-65
2023/01/11 11:56:10;;;;;;;;;;;;;;;;;;7368871;19;772;-66
2023/01/11 11:58:38;;;;;;;;;;;;;;;;;;7369682;19;862;-65
2023/01/11 12:01:08;;;;;;;;;;;;;;;;;;7369313;19;824;-66
2023/01/11 12:03:36;;;;;;;;;;;;;;;;;;7369883;19;1294;-67
2023/01/11 12:06:06;;;;;;;;;;;;;;;;;;7370546;19;1846;-67
2023/01/11 12:08:34;;;;;;;;;;;;;;;;;;7368990;19;889;-66
2023/01/11 12:11:02;;;;;;;;;;;;;;;;;;7368447;19;1846;-67
2023/01/11 12:13:30;;;;;;;;;;;;;;;;;;7368833;19;1877;-66
2023/01/11 12:15:58;;;;;;;;;;;;;;;;;;7369813;19;800;-66
2023/01/11 12:18:27;;;;;;;;;;;;;;;;;;7367998;19;812;-66
2023/01/11 12:20:55;;;;;;;;;;;;;;;;;;7369364;19;834;-64
2023/01/11 12:23:23;;;;;;;;;;;;;;;;;;7367666;19;1309;-66
2023/01/11 12:25:51;;;;;;;;;;;;;;;;;;7370709;19;1312;-65
2023/01/11 12:28:20;;;;;;;;;;;;;;;;;;7368496;19;776;-65
2023/01/11 12:30:48;;;;;;;;;;;;;;;;;;7368257;19;1855;-66
2023/01/11 12:33:16;;;;;;;;;;;;;;;;;;7367514;19;1856;-64
2023/01/11 12:35:44;;;;;;;;;;;;;;;;;;7373612;19;1904;-65
2023/01/11 12:38:12;;;;;;;;;;;;;;;;;;7366852;19;1355;-66
2023/01/11 12:40:40;;;;;;;;;;;;;;;;;;7368441;19;791;-66
2023/01/11 12:43:09;;;;;;;;;;;;;;;;;;7367291;19;1724;-66
2023/01/11 12:45:37;;;;;;;;;;;;;;;;;;7368601;19;943;-66
2023/01/11 12:48:05;;;;;;;;;;;;;;;;;;7367342;19;869;-65
2023/01/11 12:50:33;;;;;;;;;;;;;;;;;;7367375;19;1876;-66
2023/01/11 12:53:02;;;;;;;;;;;;;;;;;;7367231;19;1330;-66
2023/01/11 12:55:30;;;;;;;;;;;;;;;;;;7370818;19;1542;-65
2023/01/11 12:58:04;;;;;;;;;;;;;;;;;;7367333;19;788;-65
2023/01/11 13:00:32;;;;;;;;;;;;;;;;;;7368644;19;772;-64
2023/01/11 13:03:00;;;;;;;;;;;;;;;;;;7366297;19;1297;-67
2023/01/11 13:05:29;;;;;;;;;;;;;;;;;;7368186;19;858;-65
2023/01/11 13:07:57;;;;;;;;;;;;;;;;;;7368177;19;807;-65
2023/01/11 13:10:25;;;;;;;;;;;;;;;;;;7368792;19;1862;-66
2023/01/11 13:12:53;;;;;;;;;;;;;;;;;;7363842;19;1345;-65
2023/01/11 13:15:21;;;;;;;;;;;;;;;;;;7370295;19;2153;-66
2023/01/11 13:17:50;;;;;;;;;;;;;;;;;;7367989;19;1271;-66
2023/01/11 13:20:18;;;;;;;;;;;;;;;;;;7368687;19;871;-66
2023/01/11 13:22:46;;;;;;;;;;;;;;;;;;7366512;19;1287;-65
2023/01/11 13:25:14;;;;;;;;;;;;;;;;;;7368581;19;811;-65
2023/01/11 13:27:42;;;;;;;;;;;;;;;;;;7367641;19;855;-66
2023/01/11 13:30:11;;;;;;;;;;;;;;;;;;7366613;19;1839;-66
2023/01/11 13:32:39;;;;;;;;;;;;;;;;;;7367039;19;1275;-65
2023/01/11 13:35:07;;;;;;;;;;;;;;;;;;7368354;19;800;-64
2023/01/11 13:37:35;;;;;;;;;;;;;;;;;;7369084;19;2213;-64
2023/01/11 13:40:03;;;;;;;;;;;;;;;;;;7370248;19;1897;-66
2023/01/11 13:42:32;;;;;;;;;;;;;;;;;;7365623;19;1302;-66
2023/01/11 13:45:00;;;;;;;;;;;;;;;;;;7367606;19;819;-65
2023/01/11 13:47:28;;;;;;;;;;;;;;;;;;7367309;19;823;-65
2023/01/11 13:49:56;;;;;;;;;;;;;;;;;;7366260;19;891;-67
2023/01/11 13:52:24;;;;;;;;;;;;;;;;;;7363243;19;1870;-67
2023/01/11 13:54:53;;;;;;;;;;;;;;;;;;7366056;19;785;-65
2023/01/11 13:57:21;;;;;;;;;;;;;;;;;;7367554;19;838;-65
2023/01/11 13:59:49;;;;;;;;;;;;;;;;;;7368666;19;791;-65
2023/01/11 14:02:17;;;;;;;;;;;;;;;;;;7365681;19;1299;-66
2023/01/11 14:04:46;;;;;;;;;;;;;;;;;;7367268;19;816;-66
2023/01/11 14:07:15;;;;;;;;;;;;;;;;;;7365385;19;1838;-65
2023/01/11 14:09:44;;;;;;;;;;;;;;;;;;7366531;19;930;-66
2023/01/11 14:12:12;;;;;;;;;;;;;;;;;;7364309;19;1833;-65
2023/01/11 14:14:40;;;;;;;;;;;;;;;;;;7365976;19;807;-67
2023/01/11 14:17:08;;;;;;;;;;;;;;;;;;7366837;19;862;-67
2023/01/11 14:19:36;;;;;;;;;;;;;;;;;;7365600;19;882;-68
2023/01/11 14:22:05;;;;;;;;;;;;;;;;;;7364564;19;1274;-67
2023/01/11 14:24:33;;;;;;;;;;;;;;;;;;7365017;19;786;-68
2023/01/11 14:27:01;;;;;;;;;;;;;;;;;;7365682;19;890;-66
2023/01/11 14:29:29;;;;;;;;;;;;;;;;;;7365679;19;810;-67
2023/01/11 14:31:57;;;;;;;;;;;;;;;;;;7363903;19;1853;-67
2023/01/11 14:34:25;;;;;;;;;;;;;;;;;;7365869;19;821;-67
2023/01/11 14:36:54;;;;;;;;;;;;;;;;;;7369663;19;2147;-67
2023/01/11 14:39:22;;;;;;;;;;;;;;;;;;7365847;19;847;-67
2023/01/11 14:41:50;;;;;;;;;;;;;;;;;;7365965;19;1287;-68
2023/01/11 14:44:18;;;;;;;;;;;;;;;;;;7366393;19;862;-67
2023/01/11 14:46:47;;;;;;;;;;;;;;;;;;7366089;19;839;-67
2023/01/11 14:49:15;;;;;;;;;;;;;;;;;;7365157;19;769;-66
2023/01/11 14:51:43;;;;;;;;;;;;;;;;;;7363929;19;1846;-66
2023/01/11 14:54:11;;;;;;;;;;;;;;;;;;7366261;19;1823;-67
2023/01/11 14:56:39;;;;;;;;;;;;;;;;;;7368230;19;885;-65
2023/01/11 14:59:08;;;;;;;;;;;;;;;;;;7367170;19;1322;-66
2023/01/11 15:01:36;;;;;;;;;;;;;;;;;;7363922;19;1236;-66
2023/01/11 15:04:04;;;;;;;;;;;;;;;;;;7367819;19;1680;-66
2023/01/11 15:06:32;;;;;;;;;;;;;;;;;;7364744;19;830;-67
2023/01/11 15:09:00;;;;;;;;;;;;;;;;;;7362936;19;799;-68
2023/01/11 15:11:29;;;;;;;;;;;;;;;;;;7363888;19;1854;-66
2023/01/11 15:13:57;;;;;;;;;;;;;;;;;;7364615;19;1327;-67
2023/01/11 15:19:06;;;;;;;;;;;;;;;;;;7363399;19;791;-67
2023/01/11 15:21:34;;;;;;;;;;;;;;;;;;7365838;19;1850;-66
2023/01/11 15:24:02;;;;;;;;;;;;;;;;;;7367675;19;1677;-67
2023/01/11 15:26:31;;;;;;;;;;;;;;;;;;7366456;19;1566;-66
2023/01/11 15:28:59;;;;;;;;;;;;;;;;;;7365423;19;1934;-66
2023/01/11 15:31:27;;;;;;;;;;;;;;;;;;7365418;19;1939;-66
2023/01/11 15:33:55;;;;;;;;;;;;;;;;;;7366985;19;1832;-66
2023/01/11 15:36:23;;;;;;;;;;;;;;;;;;7368406;19;777;-65
2023/01/11 15:38:52;;;;;;;;;;;;;;;;;;7369770;19;803;-66
2023/01/11 15:44:00;;;;;;;;;;;;;;;;;;7371600;19;858;-66
2023/01/11 15:49:09;;;;;;;;;;;;;;;;;;7371669;19;879;-66
2023/01/11 15:51:37;;;;;;;;;;;;;;;;;;7370942;19;1838;-66
2023/01/11 15:54:05;;;;;;;;;;;;;;;;;;7371964;19;858;-66
2023/01/11 15:56:34;;;;;;;;;;;;;;;;;;7370925;19;847;-65
2023/01/11 15:59:02;;;;;;;;;;;;;;;;;;7371242;19;897;-65
2023/01/11 16:01:31;;;;;;;;;;;;;;;;;;7369941;19;936;-67
2023/01/11 16:03:59;;;;;;;;;;;;;;;;;;7367394;19;1396;-67
2023/01/11 16:06:27;;;;;;;;;;;;;;;;;;7369967;19;878;-66
2023/01/11 16:08:55;;;;;;;;;;;;;;;;;;7369180;19;873;-67
2023/01/11 16:11:23;;;;;;;;;;;;;;;;;;7369912;19;1846;-67
2023/01/11 16:13:51;;;;;;;;;;;;;;;;;;7365792;19;1298;-68
2023/01/11 16:16:20;;;;;;;;;;;;;;;;;;7370264;19;819;-68
2023/01/11 16:18:48;;;;;;;;;;;;;;;;;;7368572;19;866;-67
2023/01/11 16:21:16;;;;;;;;;;;;;;;;;;7369749;19;951;-67
2023/01/11 16:23:45;;;;;;;;;;;;;;;;;;7368866;19;1286;-67
2023/01/11 16:26:13;;;;;;;;;;;;;;;;;;7369776;19;747;-68
2023/01/11 16:28:43;;;;;;;;;;;;;;;;;;7368880;19;819;-67
2023/01/11 16:31:11;;;;;;;;;;;;;;;;;;7368910;19;1853;-68
2023/01/11 16:33:39;;;;;;;;;;;;;;;;;;7366906;19;1263;-67
2023/01/11 16:36:07;;;;;;;;;;;;;;;;;;7368393;19;758;-67
2023/01/11 16:38:35;;;;;;;;;;;;;;;;;;7368851;19;806;-67
2023/01/11 16:41:05;;;;;;;;;;;;;;;;;;7368856;19;777;-67
2023/01/11 16:43:34;;;;;;;;;;;;;;;;;;7366769;19;1261;-66
2023/01/11 16:46:02;;;;;;;;;;;;;;;;;;7369048;19;832;-66
2023/01/11 16:48:30;;;;;;;;;;;;;;;;;;7368354;19;843;-67
2023/01/11 16:50:59;;;;;;;;;;;;;;;;;;7369046;19;803;-65
2023/01/11 16:53:27;;;;;;;;;;;;;;;;;;7365716;19;1887;-68
2023/01/11 16:55:55;;;;;;;;;;;;;;;;;;7368502;19;831;-67
2023/01/11 16:58:24;;;;;;;;;;;;;;;;;;7367494;19;857;-67
2023/01/11 17:00:52;;;;;;;;;;;;;;;;;;7367284;19;843;-67
2023/01/11 17:03:20;;;;;;;;;;;;;;;;;;7366225;19;1337;-66
2023/01/11 17:05:48;;;;;;;;;;;;;;;;;;7368338;19;864;-67
2023/01/11 17:08:17;;;;;;;;;;;;;;;;;;7367540;19;860;-67
2023/01/11 17:10:45;;;;;;;;;;;;;;;;;;7367814;19;811;-67
2023/01/11 17:13:50;;;;;;;;;;;;;;;;;;7366386;19;1837;-68
2023/01/11 17:16:01;;;;;;;;;;;;;;;;;;7366361;19;1155;-68
2023/01/11 17:18:29;;;;;;;;;;;;;;;;;;7367465;19;867;-67
2023/01/11 17:20:57;;;;;;;;;;;;;;;;;;7370564;19;859;-67
2023/01/11 17:23:25;;;;;;;;;;;;;;;;;;7365449;19;1289;-67
2023/01/11 17:25:54;;;;;;;;;;;;;;;;;;7368120;19;850;-67
2023/01/11 17:28:22;;;;;;;;;;;;;;;;;;7367097;19;851;-66
2023/01/11 17:30:50;;;;;;;;;;;;;;;;;;7366642;19;811;-68
2023/01/11 17:33:18;;;;;;;;;;;;;;;;;;7365213;19;1853;-66
2023/01/11 17:35:46;;;;;;;;;;;;;;;;;;7367644;19;823;-66
2023/01/11 17:38:14;;;;;;;;;;;;;;;;;;7367451;19;780;-66
2023/01/11 17:40:43;;;;;;;;;;;;;;;;;;7367920;19;781;-66
2023/01/11 17:45:54;;;;;;;;;;;;;;;;;;7367908;19;793;-67
2023/01/11 17:48:22;;;;;;;;;;;;;;;;;;7367109;19;731;-67
2023/01/11 17:50:53;;;;;;;;;;;;;;;;;;7366786;19;831;-66
2023/01/11 17:53:21;;;;;;;;;;;;;;;;;;7365531;19;1847;-66
2023/01/11 17:55:49;;;;;;;;;;;;;;;;;;7367317;19;721;-67
2023/01/11 17:58:17;;;;;;;;;;;;;;;;;;7364948;19;791;-70